createdAt,value
2019-01-29T00:00:45.726Z,0.00
2019-01-29T00:01:45.643Z,0.00
2019-01-29T00:02:45.558Z,0.00
2019-01-29T00:03:45.473Z,0.00
2019-01-29T00:04:45.388Z,0.00
2019-01-29T00:05:45.302Z,0.00
2019-01-29T00:06:45.218Z,0.00
2019-01-29T00:07:45.184Z,0.00
2019-01-29T00:08:45.051Z,0.00
2019-01-29T00:09:44.963Z,0.00
2019-01-29T00:10:44.879Z,0.00
2019-01-29T00:11:44.793Z,0.00
2019-01-29T00:12:44.712Z,0.00
2019-01-29T00:13:44.625Z,0.00
2019-01-29T00:14:44.542Z,0.00
2019-01-29T00:15:44.459Z,0.00
2019-01-29T00:16:44.373Z,0.00
2019-01-29T00:17:44.293Z,0.00
2019-01-29T00:18:44.202Z,0.00
2019-01-29T00:19:44.118Z,0.00
2019-01-29T00:20:44.034Z,0.00
2019-01-29T00:21:43.949Z,0.00
2019-01-29T00:22:43.864Z,0.00
2019-01-29T00:23:43.781Z,0.00
2019-01-29T00:24:43.695Z,0.00
2019-01-29T00:25:43.610Z,0.00
2019-01-29T00:26:43.525Z,0.00
2019-01-29T00:27:43.443Z,0.00
2019-01-29T00:28:43.356Z,0.00
2019-01-29T00:29:43.271Z,0.00
2019-01-29T00:30:43.192Z,0.00
2019-01-29T00:31:43.103Z,0.00
2019-01-29T00:32:43.018Z,0.00
2019-01-29T00:33:42.931Z,0.00
2019-01-29T00:34:42.847Z,0.00
2019-01-29T00:35:42.763Z,0.00
2019-01-29T00:36:42.680Z,0.00
2019-01-29T00:37:42.593Z,0.00
2019-01-29T00:38:42.508Z,0.00
2019-01-29T00:39:42.423Z,0.00
2019-01-29T00:40:42.339Z,0.00
2019-01-29T00:41:42.255Z,0.00
2019-01-29T00:42:42.169Z,0.00
2019-01-29T00:43:42.086Z,0.00
2019-01-29T00:44:42.000Z,0.00
2019-01-29T00:45:41.914Z,0.00
2019-01-29T00:46:41.831Z,0.00
2019-01-29T00:47:41.748Z,0.00
2019-01-29T00:48:41.661Z,0.00
2019-01-29T00:49:41.627Z,0.00
2019-01-29T00:50:41.490Z,0.00
2019-01-29T00:51:41.407Z,0.00
2019-01-29T00:52:42.150Z,0.00
2019-01-29T00:53:41.236Z,0.00
2019-01-29T00:54:41.151Z,0.00
2019-01-29T00:55:41.066Z,0.00
2019-01-29T00:56:40.981Z,0.00
2019-01-29T00:57:40.895Z,0.00
2019-01-29T00:58:40.811Z,0.00
2019-01-29T00:59:40.725Z,0.00
2019-01-29T01:00:40.641Z,0.00
2019-01-29T01:01:40.556Z,0.00
2019-01-29T01:02:40.471Z,0.00
2019-01-29T01:03:40.387Z,0.00
2019-01-29T01:04:40.303Z,0.00
2019-01-29T01:05:40.217Z,0.00
2019-01-29T01:06:40.134Z,0.00
2019-01-29T01:07:40.046Z,0.00
2019-01-29T01:08:39.962Z,0.00
2019-01-29T01:09:39.877Z,0.00
2019-01-29T01:10:39.790Z,0.00
2019-01-29T01:11:39.707Z,0.00
2019-01-29T01:12:39.621Z,0.00
2019-01-29T01:13:39.536Z,0.00
2019-01-29T01:14:39.451Z,0.00
2019-01-29T01:15:39.367Z,0.00
2019-01-29T01:16:39.281Z,0.00
2019-01-29T01:17:39.196Z,0.00
2019-01-29T01:18:39.110Z,0.00
2019-01-29T01:19:39.027Z,0.00
2019-01-29T01:20:38.941Z,0.00
2019-01-29T01:21:38.857Z,0.00
2019-01-29T01:22:38.772Z,0.00
2019-01-29T01:23:38.687Z,0.00
2019-01-29T01:24:38.604Z,0.00
2019-01-29T01:25:38.522Z,0.00
2019-01-29T01:26:38.431Z,0.00
2019-01-29T01:27:38.348Z,0.00
2019-01-29T01:28:38.263Z,0.00
2019-01-29T01:29:38.179Z,0.00
2019-01-29T01:30:38.094Z,0.00
2019-01-29T01:31:38.009Z,0.00
2019-01-29T01:32:37.925Z,0.00
2019-01-29T01:33:37.841Z,0.00
2019-01-29T01:34:37.754Z,0.00
2019-01-29T01:35:37.670Z,0.00
2019-01-29T01:36:37.585Z,0.00
2019-01-29T01:37:37.500Z,0.00
2019-01-29T01:38:37.416Z,0.00
2019-01-29T01:39:37.331Z,0.00
2019-01-29T01:40:37.247Z,0.00
2019-01-29T01:41:37.167Z,0.00
2019-01-29T01:42:37.078Z,0.00
2019-01-29T01:43:36.994Z,0.00
2019-01-29T01:44:36.908Z,0.00
2019-01-29T01:45:36.822Z,0.00
2019-01-29T01:46:36.739Z,0.00
2019-01-29T01:47:36.654Z,0.00
2019-01-29T01:48:36.570Z,0.00
2019-01-29T01:49:36.535Z,0.00
2019-01-29T01:50:36.400Z,0.00
2019-01-29T01:51:36.315Z,0.00
2019-01-29T01:52:36.231Z,0.00
2019-01-29T01:53:36.145Z,0.00
2019-01-29T01:54:36.062Z,0.00
2019-01-29T01:55:36.076Z,0.00
2019-01-29T01:56:35.893Z,0.00
2019-01-29T01:57:35.807Z,0.00
2019-01-29T01:58:35.722Z,0.00
2019-01-29T01:59:35.636Z,0.00
2019-01-29T02:00:35.553Z,0.00
2019-01-29T02:01:35.467Z,0.00
2019-01-29T02:02:35.383Z,0.00
2019-01-29T02:03:35.299Z,0.00
2019-01-29T02:04:35.215Z,0.00
2019-01-29T02:05:35.127Z,0.00
2019-01-29T02:06:35.044Z,0.00
2019-01-29T02:07:34.959Z,0.00
2019-01-29T02:08:34.875Z,0.00
2019-01-29T02:09:34.789Z,0.00
2019-01-29T02:10:34.706Z,0.00
2019-01-29T02:11:34.620Z,0.00
2019-01-29T02:12:34.535Z,0.00
2019-01-29T02:13:34.451Z,0.00
2019-01-29T02:14:34.366Z,0.00
2019-01-29T02:15:34.282Z,0.00
2019-01-29T02:16:34.197Z,0.00
2019-01-29T02:17:34.113Z,0.00
2019-01-29T02:18:34.028Z,0.00
2019-01-29T02:19:33.944Z,0.00
2019-01-29T02:20:33.860Z,0.00
2019-01-29T02:21:33.775Z,0.00
2019-01-29T02:22:33.690Z,0.00
2019-01-29T02:23:33.606Z,0.00
2019-01-29T02:24:33.522Z,0.00
2019-01-29T02:25:33.438Z,0.00
2019-01-29T02:26:33.352Z,0.00
2019-01-29T02:27:33.269Z,0.00
2019-01-29T02:28:33.184Z,0.00
2019-01-29T02:29:33.098Z,0.00
2019-01-29T02:30:33.015Z,0.00
2019-01-29T02:31:32.980Z,0.00
2019-01-29T02:32:32.846Z,0.00
2019-01-29T02:33:32.761Z,0.00
2019-01-29T02:34:32.676Z,0.00
2019-01-29T02:35:32.595Z,0.00
2019-01-29T02:36:32.508Z,0.00
2019-01-29T02:37:32.424Z,0.00
2019-01-29T02:38:32.338Z,0.00
2019-01-29T02:39:32.255Z,0.00
2019-01-29T02:40:32.169Z,0.00
2019-01-29T02:41:32.085Z,0.00
2019-01-29T02:42:32.002Z,0.00
2019-01-29T02:43:31.917Z,0.00
2019-01-29T02:44:31.833Z,0.00
2019-01-29T02:45:31.750Z,0.00
2019-01-29T02:46:31.662Z,0.00
2019-01-29T02:47:31.576Z,0.00
2019-01-29T02:48:31.495Z,0.00
2019-01-29T02:49:31.409Z,0.00
2019-01-29T02:50:31.325Z,0.00
2019-01-29T02:51:31.241Z,0.00
2019-01-29T02:52:31.207Z,0.00
2019-01-29T02:53:31.071Z,0.00
2019-01-29T02:54:30.988Z,0.00
2019-01-29T02:55:30.903Z,0.00
2019-01-29T02:56:30.821Z,0.00
2019-01-29T02:57:30.786Z,0.00
2019-01-29T02:58:30.651Z,0.00
2019-01-29T02:59:30.567Z,0.00
2019-01-29T03:00:30.482Z,0.00
2019-01-29T03:01:30.397Z,0.00
2019-01-29T03:02:30.313Z,0.00
2019-01-29T03:03:30.229Z,0.00
2019-01-29T03:04:30.145Z,0.00
2019-01-29T03:05:30.060Z,0.00
2019-01-29T03:06:29.978Z,0.00
2019-01-29T03:07:29.892Z,0.00
2019-01-29T03:08:29.807Z,0.00
2019-01-29T03:09:29.723Z,0.00
2019-01-29T03:10:29.645Z,0.00
2019-01-29T03:11:29.554Z,0.00
2019-01-29T03:12:29.469Z,0.00
2019-01-29T03:13:29.385Z,0.00
2019-01-29T03:14:29.303Z,0.00
2019-01-29T03:15:29.217Z,0.00
2019-01-29T03:16:29.134Z,0.00
2019-01-29T03:17:29.054Z,0.00
2019-01-29T03:18:28.974Z,0.00
2019-01-29T03:19:28.881Z,0.00
2019-01-29T03:20:28.796Z,0.00
2019-01-29T03:21:28.710Z,0.00
2019-01-29T03:22:28.626Z,0.00
2019-01-29T03:23:28.543Z,0.00
2019-01-29T03:24:28.457Z,0.00
2019-01-29T03:25:28.372Z,0.00
2019-01-29T03:26:28.288Z,0.00
2019-01-29T03:27:28.206Z,0.00
2019-01-29T03:28:28.120Z,0.00
2019-01-29T03:29:28.034Z,0.00
2019-01-29T03:30:27.953Z,0.00
2019-01-29T03:31:27.871Z,0.00
2019-01-29T03:32:28.134Z,0.00
2019-01-29T03:33:27.709Z,0.00
2019-01-29T03:34:27.611Z,0.00
2019-01-29T03:35:27.528Z,0.00
2019-01-29T03:36:27.443Z,0.00
2019-01-29T03:37:27.407Z,0.00
2019-01-29T03:38:27.275Z,0.00
2019-01-29T03:39:27.189Z,0.00
2019-01-29T03:40:27.106Z,0.00
2019-01-29T03:41:27.020Z,0.00
2019-01-29T03:42:26.985Z,0.00
2019-01-29T03:43:26.850Z,0.00
2019-01-29T03:44:26.767Z,0.00
2019-01-29T03:45:26.683Z,0.00
2019-01-29T03:46:26.597Z,0.00
2019-01-29T03:47:26.512Z,0.00
2019-01-29T03:48:26.426Z,0.00
2019-01-29T03:49:26.346Z,0.00
2019-01-29T03:50:26.257Z,0.00
2019-01-29T03:51:26.173Z,0.00
2019-01-29T03:52:26.093Z,0.00
2019-01-29T03:53:26.003Z,0.00
2019-01-29T03:54:25.919Z,0.00
2019-01-29T03:55:25.838Z,0.00
2019-01-29T03:56:25.751Z,0.00
2019-01-29T03:57:25.666Z,0.00
2019-01-29T03:58:25.580Z,0.00
2019-01-29T03:59:25.497Z,0.00
2019-01-29T04:00:25.413Z,0.00
2019-01-29T04:01:25.327Z,0.00
2019-01-29T04:02:25.242Z,0.00
2019-01-29T04:03:25.159Z,0.00
2019-01-29T04:04:25.088Z,0.00
2019-01-29T04:05:24.989Z,0.00
2019-01-29T04:06:24.905Z,0.00
2019-01-29T04:07:24.820Z,0.00
2019-01-29T04:08:24.736Z,0.00
2019-01-29T04:09:24.652Z,0.00
2019-01-29T04:10:24.585Z,0.00
2019-01-29T04:11:24.482Z,0.00
2019-01-29T04:12:24.398Z,0.00
2019-01-29T04:13:24.313Z,0.00
2019-01-29T04:14:24.229Z,0.00
2019-01-29T04:15:24.155Z,0.00
2019-01-29T04:16:24.059Z,0.00
2019-01-29T04:17:23.980Z,0.00
2019-01-29T04:18:23.892Z,0.00
2019-01-29T04:19:23.806Z,0.00
2019-01-29T04:20:23.722Z,0.00
2019-01-29T04:21:23.637Z,0.00
2019-01-29T04:22:23.552Z,0.00
2019-01-29T04:23:23.468Z,0.00
2019-01-29T04:24:23.389Z,0.00
2019-01-29T04:25:23.304Z,0.00
2019-01-29T04:26:23.215Z,0.00
2019-01-29T04:27:23.131Z,0.00
2019-01-29T04:28:23.049Z,0.00
2019-01-29T04:29:22.960Z,0.00
2019-01-29T04:30:22.876Z,0.00
2019-01-29T04:31:22.792Z,0.00
2019-01-29T04:32:22.708Z,0.00
2019-01-29T04:33:22.622Z,0.00
2019-01-29T04:34:22.538Z,0.00
2019-01-29T04:35:22.455Z,0.00
2019-01-29T04:36:22.370Z,0.00
2019-01-29T04:37:22.288Z,0.00
2019-01-29T04:38:22.200Z,0.00
2019-01-29T04:39:22.115Z,0.00
2019-01-29T04:40:22.032Z,0.00
2019-01-29T04:41:21.946Z,0.00
2019-01-29T04:42:21.862Z,0.00
2019-01-29T04:43:21.778Z,0.00
2019-01-29T04:44:21.693Z,0.00
2019-01-29T04:45:21.607Z,0.00
2019-01-29T04:46:21.523Z,0.00
2019-01-29T04:47:21.436Z,0.00
2019-01-29T04:48:21.356Z,0.00
2019-01-29T04:49:21.268Z,0.00
2019-01-29T04:50:21.191Z,0.00
2019-01-29T04:51:21.103Z,0.00
2019-01-29T04:52:21.015Z,0.00
2019-01-29T04:53:20.928Z,0.00
2019-01-29T04:54:20.842Z,0.00
2019-01-29T04:55:20.758Z,0.00
2019-01-29T04:56:20.674Z,0.00
2019-01-29T04:57:20.590Z,0.00
2019-01-29T04:58:20.504Z,0.00
2019-01-29T04:59:20.419Z,0.00
2019-01-29T05:00:20.335Z,0.00
2019-01-29T05:01:20.249Z,0.00
2019-01-29T05:02:20.165Z,0.00
2019-01-29T05:03:20.082Z,0.00
2019-01-29T05:04:19.996Z,0.00
2019-01-29T05:05:19.915Z,0.00
2019-01-29T05:06:19.824Z,0.00
2019-01-29T05:07:19.740Z,0.00
2019-01-29T05:08:19.657Z,0.00
2019-01-29T05:09:19.571Z,0.00
2019-01-29T05:10:19.493Z,0.00
2019-01-29T05:11:19.406Z,0.00
2019-01-29T05:12:19.325Z,0.00
2019-01-29T05:13:19.231Z,0.00
2019-01-29T05:14:19.145Z,0.00
2019-01-29T05:15:19.061Z,0.00
2019-01-29T05:16:18.976Z,0.00
2019-01-29T05:17:18.890Z,0.00
2019-01-29T05:18:18.806Z,0.00
2019-01-29T05:19:18.720Z,0.00
2019-01-29T05:20:18.639Z,0.00
2019-01-29T05:21:18.550Z,0.00
2019-01-29T05:22:18.467Z,0.00
2019-01-29T05:23:18.382Z,0.00
2019-01-29T05:24:18.296Z,0.00
2019-01-29T05:25:18.211Z,0.00
2019-01-29T05:26:18.128Z,0.00
2019-01-29T05:27:18.042Z,0.00
2019-01-29T05:28:17.960Z,0.00
2019-01-29T05:29:17.874Z,0.00
2019-01-29T05:30:20.624Z,0.00
2019-01-29T05:31:17.703Z,0.00
2019-01-29T05:32:17.618Z,0.00
2019-01-29T05:33:17.532Z,0.00
2019-01-29T05:34:17.449Z,0.00
2019-01-29T05:35:17.365Z,0.00
2019-01-29T05:36:17.280Z,0.00
2019-01-29T05:37:17.195Z,0.00
2019-01-29T05:38:17.111Z,0.00
2019-01-29T05:39:17.027Z,0.00
2019-01-29T05:40:16.942Z,0.00
2019-01-29T05:41:16.858Z,0.00
2019-01-29T05:42:16.771Z,0.00
2019-01-29T05:43:16.688Z,0.00
2019-01-29T05:44:16.604Z,0.00
2019-01-29T05:45:16.517Z,0.00
2019-01-29T05:46:16.433Z,0.00
2019-01-29T05:47:16.347Z,0.00
2019-01-29T05:48:16.264Z,0.00
2019-01-29T05:49:16.178Z,0.00
2019-01-29T05:50:16.104Z,0.00
2019-01-29T05:51:16.013Z,0.00
2019-01-29T05:52:15.926Z,0.00
2019-01-29T05:53:15.839Z,0.00
2019-01-29T05:54:16.605Z,0.00
2019-01-29T05:55:15.671Z,0.00
2019-01-29T05:56:15.586Z,0.00
2019-01-29T05:57:15.501Z,0.00
2019-01-29T05:58:15.416Z,0.00
2019-01-29T05:59:15.331Z,0.00
2019-01-29T06:00:15.249Z,0.00
2019-01-29T06:01:15.163Z,0.00
2019-01-29T06:02:15.077Z,0.00
2019-01-29T06:03:14.992Z,0.00
2019-01-29T06:04:14.908Z,0.00
2019-01-29T06:05:14.822Z,0.00
2019-01-29T06:06:14.738Z,0.00
2019-01-29T06:07:14.654Z,0.00
2019-01-29T06:08:14.569Z,0.00
2019-01-29T06:09:14.484Z,0.00
2019-01-29T06:10:14.400Z,0.00
2019-01-29T06:11:14.314Z,0.00
2019-01-29T06:12:14.232Z,0.00
2019-01-29T06:13:14.144Z,0.00
2019-01-29T06:14:14.059Z,0.00
2019-01-29T06:15:13.976Z,0.00
2019-01-29T06:16:13.894Z,0.00
2019-01-29T06:17:13.806Z,0.00
2019-01-29T06:18:13.721Z,0.00
2019-01-29T06:19:13.636Z,0.00
2019-01-29T06:20:13.602Z,0.00
2019-01-29T06:21:13.468Z,0.00
2019-01-29T06:22:13.383Z,0.00
2019-01-29T06:23:13.299Z,0.00
2019-01-29T06:24:13.221Z,0.00
2019-01-29T06:25:13.134Z,0.00
2019-01-29T06:26:13.044Z,0.00
2019-01-29T06:27:12.958Z,0.00
2019-01-29T06:28:12.875Z,0.00
2019-01-29T06:29:12.790Z,0.00
2019-01-29T06:30:12.705Z,0.00
2019-01-29T06:31:12.621Z,0.00
2019-01-29T06:32:12.537Z,0.00
2019-01-29T06:33:12.455Z,0.00
2019-01-29T06:34:12.366Z,4.00
2019-01-29T06:35:12.635Z,4.00
2019-01-29T06:36:12.198Z,0.00
2019-01-29T06:37:12.113Z,0.00
2019-01-29T06:38:12.029Z,4.00
2019-01-29T06:39:11.945Z,4.00
2019-01-29T06:40:11.859Z,4.00
2019-01-29T06:41:11.774Z,4.00
2019-01-29T06:42:11.689Z,8.00
2019-01-29T06:43:11.605Z,8.00
2019-01-29T06:44:11.521Z,8.00
2019-01-29T06:45:11.435Z,12.00
2019-01-29T06:46:11.351Z,12.00
2019-01-29T06:47:11.266Z,12.00
2019-01-29T06:48:11.184Z,16.00
2019-01-29T06:49:11.097Z,20.00
2019-01-29T06:50:11.014Z,28.00
2019-01-29T06:51:10.928Z,32.00
2019-01-29T06:52:10.894Z,32.00
2019-01-29T06:53:10.758Z,36.00
2019-01-29T06:54:10.676Z,44.00
2019-01-29T06:55:10.592Z,52.00
2019-01-29T06:56:10.505Z,64.00
2019-01-29T06:57:10.420Z,72.00
2019-01-29T06:58:10.335Z,76.00
2019-01-29T06:59:10.250Z,88.00
2019-01-29T07:00:10.167Z,96.00
2019-01-29T07:01:10.080Z,104.00
2019-01-29T07:02:09.996Z,116.00
2019-01-29T07:03:09.913Z,132.00
2019-01-29T07:04:09.829Z,148.00
2019-01-29T07:05:09.744Z,160.00
2019-01-29T07:06:09.665Z,168.00
2019-01-29T07:07:09.574Z,180.00
2019-01-29T07:08:09.490Z,200.00
2019-01-29T07:09:09.403Z,216.00
2019-01-29T07:10:09.320Z,228.00
2019-01-29T07:11:09.236Z,236.00
2019-01-29T07:12:09.151Z,252.00
2019-01-29T07:13:09.066Z,268.00
2019-01-29T07:14:08.981Z,296.00
2019-01-29T07:15:08.898Z,332.00
2019-01-29T07:16:08.814Z,352.00
2019-01-29T07:17:08.727Z,376.00
2019-01-29T07:18:08.643Z,404.00
2019-01-29T07:19:08.558Z,436.00
2019-01-29T07:20:08.475Z,444.00
2019-01-29T07:21:08.390Z,460.00
2019-01-29T07:22:08.305Z,476.00
2019-01-29T07:23:08.221Z,504.00
2019-01-29T07:24:08.137Z,552.00
2019-01-29T07:25:08.051Z,632.00
2019-01-29T07:26:07.967Z,692.00
2019-01-29T07:27:07.884Z,732.00
2019-01-29T07:28:07.798Z,784.00
2019-01-29T07:29:07.712Z,828.00
2019-01-29T07:30:07.629Z,868.00
2019-01-29T07:31:07.545Z,880.00
2019-01-29T07:32:07.460Z,864.00
2019-01-29T07:33:07.376Z,860.00
2019-01-29T07:34:07.292Z,888.00
2019-01-29T07:35:07.207Z,956.00
2019-01-29T07:36:07.192Z,964.00
2019-01-29T07:37:07.036Z,880.00
2019-01-29T07:38:06.952Z,864.00
2019-01-29T07:39:06.868Z,896.00
2019-01-29T07:40:06.876Z,916.00
2019-01-29T07:41:06.698Z,936.00
2019-01-29T07:42:06.615Z,952.00
2019-01-29T07:43:06.529Z,992.00
2019-01-29T07:44:06.451Z,1044.00
2019-01-29T07:45:06.360Z,1084.00
2019-01-29T07:46:06.276Z,1108.00
2019-01-29T07:47:06.192Z,1112.00
2019-01-29T07:48:06.108Z,1128.00
2019-01-29T07:49:06.023Z,1060.00
2019-01-29T07:50:05.940Z,1044.00
2019-01-29T07:51:05.858Z,1012.00
2019-01-29T07:52:05.772Z,996.00
2019-01-29T07:53:05.686Z,1036.00
2019-01-29T07:54:05.602Z,1068.00
2019-01-29T07:55:05.517Z,1096.00
2019-01-29T07:56:05.434Z,1124.00
2019-01-29T07:57:05.349Z,1148.00
2019-01-29T07:58:05.265Z,1208.00
2019-01-29T07:59:05.180Z,1272.00
2019-01-29T08:00:05.098Z,1384.00
2019-01-29T08:01:05.011Z,1344.00
2019-01-29T08:02:04.927Z,1384.00
2019-01-29T08:03:04.844Z,1588.00
2019-01-29T08:04:04.759Z,1628.00
2019-01-29T08:05:04.673Z,1536.00
2019-01-29T08:06:04.589Z,1444.00
2019-01-29T08:07:04.506Z,1420.00
2019-01-29T08:08:04.422Z,1456.00
2019-01-29T08:09:04.337Z,1464.00
2019-01-29T08:10:04.252Z,1488.00
2019-01-29T08:11:04.169Z,1568.00
2019-01-29T08:12:04.083Z,1728.00
2019-01-29T08:13:03.999Z,1852.00
2019-01-29T08:14:03.914Z,1952.00
2019-01-29T08:15:03.832Z,2024.00
2019-01-29T08:16:03.746Z,2168.00
2019-01-29T08:17:03.662Z,2240.00
2019-01-29T08:18:03.577Z,2312.00
2019-01-29T08:19:03.493Z,2344.00
2019-01-29T08:20:03.409Z,2208.00
2019-01-29T08:21:03.325Z,1984.00
2019-01-29T08:22:03.240Z,2136.00
2019-01-29T08:23:03.157Z,2348.00
2019-01-29T08:24:03.074Z,2468.00
2019-01-29T08:25:02.988Z,2604.00
2019-01-29T08:26:02.905Z,2672.00
2019-01-29T08:27:02.821Z,2700.00
2019-01-29T08:28:02.739Z,2596.00
2019-01-29T08:29:02.653Z,2408.00
2019-01-29T08:30:02.573Z,2224.00
2019-01-29T08:31:02.486Z,2156.00
2019-01-29T08:32:02.402Z,2108.00
2019-01-29T08:33:02.317Z,2076.00
2019-01-29T08:34:02.283Z,2108.00
2019-01-29T08:35:02.151Z,2124.00
2019-01-29T08:36:02.068Z,2160.00
2019-01-29T08:37:01.986Z,2240.00
2019-01-29T08:38:01.897Z,2304.00
2019-01-29T08:39:01.814Z,2376.00
2019-01-29T08:40:01.732Z,2468.00
2019-01-29T08:41:01.649Z,2532.00
2019-01-29T08:42:01.564Z,2496.00
2019-01-29T08:43:01.480Z,2312.00
2019-01-29T08:44:01.470Z,2160.00
2019-01-29T08:45:01.312Z,2096.00
2019-01-29T08:46:01.227Z,2088.00
2019-01-29T08:47:01.144Z,2124.00
2019-01-29T08:48:01.061Z,2160.00
2019-01-29T08:49:00.975Z,2196.00
2019-01-29T08:50:00.892Z,2216.00
2019-01-29T08:51:00.810Z,2272.00
2019-01-29T08:52:00.808Z,2268.00
2019-01-29T08:53:00.642Z,2352.00
2019-01-29T08:54:00.556Z,2372.00
2019-01-29T08:55:00.473Z,2292.00
2019-01-29T08:56:00.390Z,2232.00
2019-01-29T08:57:00.308Z,2176.00
2019-01-29T08:58:00.222Z,2188.00
2019-01-29T08:59:00.140Z,2208.00
2019-01-29T09:00:00.149Z,2172.00
2019-01-29T09:00:59.969Z,2196.00
2019-01-29T09:01:59.884Z,2148.00
2019-01-29T09:02:59.803Z,2092.00
2019-01-29T09:03:59.716Z,2096.00
2019-01-29T09:04:59.633Z,2124.00
2019-01-29T09:05:59.558Z,2124.00
2019-01-29T09:06:59.464Z,2104.00
2019-01-29T09:07:59.380Z,2120.00
2019-01-29T09:08:59.296Z,2152.00
2019-01-29T09:09:59.212Z,2248.00
2019-01-29T09:10:59.129Z,2312.00
2019-01-29T09:11:59.044Z,2360.00
2019-01-29T09:12:58.961Z,2396.00
2019-01-29T09:13:58.878Z,2432.00
2019-01-29T09:14:58.792Z,2516.00
2019-01-29T09:15:58.710Z,2592.00
2019-01-29T09:16:58.623Z,2640.00
2019-01-29T09:17:58.540Z,2708.00
2019-01-29T09:18:58.457Z,2828.00
2019-01-29T09:19:58.373Z,3012.00
2019-01-29T09:20:58.289Z,3160.00
2019-01-29T09:21:58.208Z,3268.00
2019-01-29T09:22:58.122Z,3328.00
2019-01-29T09:23:58.038Z,3268.00
2019-01-29T09:24:57.954Z,3212.00
2019-01-29T09:25:57.870Z,3260.00
2019-01-29T09:26:57.787Z,3328.00
2019-01-29T09:27:57.703Z,3384.00
2019-01-29T09:28:57.618Z,3420.00
2019-01-29T09:29:57.535Z,3496.00
2019-01-29T09:30:57.552Z,3616.00
2019-01-29T09:31:57.370Z,3800.00
2019-01-29T09:32:57.284Z,3920.00
2019-01-29T09:33:57.202Z,3808.00
2019-01-29T09:34:57.118Z,3528.00
2019-01-29T09:35:57.035Z,3504.00
2019-01-29T09:36:56.951Z,3624.00
2019-01-29T09:37:56.867Z,3788.00
2019-01-29T09:38:56.784Z,3904.00
2019-01-29T09:39:56.701Z,3972.00
2019-01-29T09:40:56.616Z,4020.00
2019-01-29T09:41:56.532Z,4072.00
2019-01-29T09:42:56.450Z,4148.00
2019-01-29T09:43:56.366Z,4320.00
2019-01-29T09:44:56.282Z,4436.00
2019-01-29T09:45:56.199Z,4444.00
2019-01-29T09:46:56.115Z,4660.00
2019-01-29T09:47:56.033Z,4952.00
2019-01-29T09:48:55.950Z,5144.00
2019-01-29T09:49:55.866Z,5224.00
2019-01-29T09:50:55.784Z,5092.00
2019-01-29T09:51:55.699Z,5184.00
2019-01-29T09:52:55.615Z,5668.00
2019-01-29T09:53:55.531Z,5940.00
2019-01-29T09:54:55.449Z,5844.00
2019-01-29T09:55:55.367Z,5648.00
2019-01-29T09:56:55.294Z,5552.00
2019-01-29T09:57:55.199Z,5584.00
2019-01-29T09:58:55.117Z,5692.00
2019-01-29T09:59:55.038Z,5880.00
2019-01-29T10:00:54.956Z,6180.00
2019-01-29T10:01:54.867Z,6496.00
2019-01-29T10:02:54.784Z,6700.00
2019-01-29T10:03:54.703Z,6704.00
2019-01-29T10:04:54.621Z,6736.00
2019-01-29T10:05:54.538Z,6820.00
2019-01-29T10:06:54.453Z,6848.00
2019-01-29T10:07:54.369Z,6720.00
2019-01-29T10:08:54.286Z,6984.00
2019-01-29T10:09:54.204Z,7420.00
2019-01-29T10:10:54.123Z,7428.00
2019-01-29T10:11:54.039Z,7196.00
2019-01-29T10:12:53.955Z,7104.00
2019-01-29T10:13:53.874Z,7356.00
2019-01-29T10:14:53.793Z,7616.00
2019-01-29T10:15:53.708Z,7756.00
2019-01-29T10:16:53.626Z,7728.00
2019-01-29T10:17:53.547Z,7572.00
2019-01-29T10:18:53.520Z,7480.00
2019-01-29T10:19:53.379Z,7528.00
2019-01-29T10:20:53.296Z,7752.00
2019-01-29T10:21:53.214Z,8124.00
2019-01-29T10:22:53.132Z,8308.00
2019-01-29T10:23:53.051Z,8236.00
2019-01-29T10:24:52.968Z,7940.00
2019-01-29T10:25:52.890Z,7680.00
2019-01-29T10:26:52.803Z,7620.00
2019-01-29T10:27:52.721Z,7704.00
2019-01-29T10:28:52.638Z,7692.00
2019-01-29T10:29:52.556Z,7368.00
2019-01-29T10:30:52.473Z,7096.00
2019-01-29T10:31:52.393Z,6800.00
2019-01-29T10:32:52.311Z,6560.00
2019-01-29T10:33:52.228Z,6476.00
2019-01-29T10:34:52.156Z,6032.00
2019-01-29T10:35:52.064Z,5644.00
2019-01-29T10:36:51.981Z,5540.00
2019-01-29T10:37:51.899Z,4988.00
2019-01-29T10:38:51.817Z,4724.00
2019-01-29T10:39:51.785Z,4976.00
2019-01-29T10:40:51.676Z,5024.00
2019-01-29T10:41:51.570Z,5016.00
2019-01-29T10:42:51.494Z,5152.00
2019-01-29T10:43:51.406Z,5176.00
2019-01-29T10:44:51.326Z,5152.00
2019-01-29T10:45:51.241Z,5152.00
2019-01-29T10:46:51.161Z,5260.00
2019-01-29T10:47:51.077Z,5124.00
2019-01-29T10:48:51.001Z,4872.00
2019-01-29T10:49:50.912Z,4528.00
2019-01-29T10:50:50.832Z,4196.00
2019-01-29T10:51:50.750Z,4064.00
2019-01-29T10:52:50.666Z,4068.00
2019-01-29T10:53:50.582Z,4220.00
2019-01-29T10:54:50.499Z,4572.00
2019-01-29T10:55:50.419Z,4964.00
2019-01-29T10:56:50.334Z,5196.00
2019-01-29T10:57:50.253Z,5220.00
2019-01-29T10:58:50.170Z,5176.00
2019-01-29T10:59:50.088Z,5760.00
2019-01-29T11:00:50.005Z,5812.00
2019-01-29T11:01:49.923Z,5836.00
2019-01-29T11:02:49.843Z,5780.00
2019-01-29T11:03:49.758Z,5732.00
2019-01-29T11:04:49.674Z,5988.00
2019-01-29T11:05:49.592Z,6088.00
2019-01-29T11:06:49.511Z,5948.00
2019-01-29T11:07:49.429Z,5888.00
2019-01-29T11:08:49.344Z,5724.00
2019-01-29T11:09:49.261Z,5300.00
2019-01-29T11:10:49.180Z,5032.00
2019-01-29T11:11:49.098Z,4936.00
2019-01-29T11:12:49.017Z,4776.00
2019-01-29T11:13:48.934Z,4572.00
2019-01-29T11:14:48.851Z,4644.00
2019-01-29T11:15:48.771Z,4848.00
2019-01-29T11:16:48.685Z,5128.00
2019-01-29T11:17:48.604Z,5316.00
2019-01-29T11:18:48.523Z,5196.00
2019-01-29T11:19:48.439Z,4636.00
2019-01-29T11:20:48.356Z,4432.00
2019-01-29T11:21:48.275Z,4384.00
2019-01-29T11:22:48.194Z,4452.00
2019-01-29T11:23:48.110Z,4596.00
2019-01-29T11:24:48.049Z,4560.00
2019-01-29T11:25:55.661Z,4620.00
2019-01-29T11:26:47.863Z,4612.00
2019-01-29T11:27:47.782Z,5044.00
2019-01-29T11:28:47.697Z,5528.00
2019-01-29T11:29:47.617Z,5984.00
2019-01-29T11:30:47.534Z,6456.00
2019-01-29T11:31:47.454Z,7076.00
2019-01-29T11:32:47.368Z,7988.00
2019-01-29T11:33:47.285Z,9288.00
2019-01-29T11:34:47.203Z,10472.00
2019-01-29T11:35:47.121Z,11088.00
2019-01-29T11:36:47.041Z,12556.00
2019-01-29T11:37:46.957Z,17408.00
2019-01-29T11:38:46.875Z,19392.00
2019-01-29T11:39:46.793Z,20544.00
2019-01-29T11:40:46.710Z,20480.00
2019-01-29T11:41:46.630Z,22304.00
2019-01-29T11:42:46.547Z,22368.00
2019-01-29T11:43:46.467Z,21600.00
2019-01-29T11:44:46.387Z,22464.00
2019-01-29T11:45:46.306Z,13828.00
2019-01-29T11:46:46.225Z,16512.00
2019-01-29T11:47:46.146Z,16864.00
2019-01-29T11:48:46.067Z,36928.00
2019-01-29T11:49:45.988Z,41760.00
2019-01-29T11:50:45.910Z,39424.00
2019-01-29T11:51:45.830Z,36320.00
2019-01-29T11:52:45.749Z,6452.00
2019-01-29T11:53:45.673Z,5832.00
2019-01-29T11:54:45.595Z,5652.00
2019-01-29T11:55:45.516Z,5784.00
2019-01-29T11:56:45.438Z,6188.00
2019-01-29T11:57:46.829Z,6884.00
2019-01-29T11:58:45.280Z,7324.00
2019-01-29T11:59:45.202Z,7644.00
2019-01-29T12:00:45.122Z,7584.00
2019-01-29T12:01:45.043Z,7852.00
2019-01-29T12:02:44.963Z,7984.00
2019-01-29T12:03:44.885Z,8808.00
2019-01-29T12:04:44.805Z,10824.00
2019-01-29T12:05:44.723Z,11964.00
2019-01-29T12:06:44.644Z,11608.00
2019-01-29T12:07:44.568Z,11276.00
2019-01-29T12:08:44.484Z,12280.00
2019-01-29T12:09:44.404Z,15616.00
2019-01-29T12:10:44.327Z,15648.00
2019-01-29T12:11:44.248Z,16160.00
2019-01-29T12:12:44.163Z,9204.00
2019-01-29T12:13:44.084Z,7280.00
2019-01-29T12:14:44.003Z,6524.00
2019-01-29T12:15:43.924Z,6328.00
2019-01-29T12:16:43.843Z,5736.00
2019-01-29T12:17:43.762Z,5476.00
2019-01-29T12:18:43.683Z,5632.00
2019-01-29T12:19:43.604Z,5392.00
2019-01-29T12:20:43.523Z,5868.00
2019-01-29T12:21:43.442Z,7452.00
2019-01-29T12:22:43.363Z,8188.00
2019-01-29T12:23:43.282Z,8000.00
2019-01-29T12:24:43.200Z,8572.00
2019-01-29T12:25:43.124Z,8332.00
2019-01-29T12:26:43.045Z,8152.00
2019-01-29T12:27:42.960Z,7984.00
2019-01-29T12:28:42.878Z,7064.00
2019-01-29T12:29:42.797Z,6896.00
2019-01-29T12:30:42.718Z,7256.00
2019-01-29T12:31:42.638Z,7896.00
2019-01-29T12:32:42.557Z,9816.00
2019-01-29T12:33:42.478Z,11620.00
2019-01-29T12:34:42.396Z,12344.00
2019-01-29T12:35:42.319Z,11892.00
2019-01-29T12:36:42.234Z,11496.00
2019-01-29T12:37:42.155Z,11072.00
2019-01-29T12:38:42.073Z,10640.00
2019-01-29T12:39:41.993Z,10712.00
2019-01-29T12:40:41.910Z,10884.00
2019-01-29T12:41:41.831Z,11612.00
2019-01-29T12:42:41.752Z,12188.00